createdAt,value
2023-07-22T00:00:53.572Z,14.20
2023-07-22T00:03:21.774Z,14.20
2023-07-22T00:05:51.259Z,14.20
2023-07-22T00:08:19.346Z,14.20
2023-07-22T00:10:47.431Z,14.30
2023-07-22T00:13:15.526Z,14.30
2023-07-22T00:15:43.574Z,14.30
2023-07-22T00:18:11.733Z,14.30
2023-07-22T00:20:39.888Z,14.40
2023-07-22T00:23:11.411Z,14.40
2023-07-22T00:25:39.483Z,14.40
2023-07-22T00:28:07.580Z,14.40
2023-07-22T00:30:36.112Z,14.40
2023-07-22T00:33:04.390Z,14.40
2023-07-22T00:35:33.018Z,14.40
2023-07-22T00:38:01.265Z,14.40
2023-07-22T00:40:33.137Z,14.40
2023-07-22T00:43:01.362Z,14.50
2023-07-22T00:45:29.483Z,14.50
2023-07-22T00:47:57.605Z,14.40
2023-07-22T00:50:25.986Z,14.50
2023-07-22T00:52:54.658Z,14.50
2023-07-22T00:55:22.920Z,14.50
2023-07-22T00:57:52.320Z,14.50
2023-07-22T01:00:20.405Z,14.50
2023-07-22T01:02:48.466Z,14.60
2023-07-22T01:05:17.252Z,14.50
2023-07-22T01:07:45.335Z,14.50
2023-07-22T01:10:15.967Z,14.60
2023-07-22T01:12:45.850Z,14.60
2023-07-22T01:15:15.294Z,14.60
2023-07-22T01:17:43.440Z,14.60
2023-07-22T01:20:12.503Z,14.60
2023-07-22T01:22:40.555Z,14.60
2023-07-22T01:25:10.833Z,14.60
2023-07-22T01:27:38.866Z,14.60
2023-07-22T01:30:11.051Z,14.70
2023-07-22T01:32:39.931Z,14.60
2023-07-22T01:35:09.635Z,14.60
2023-07-22T01:37:37.901Z,14.70
2023-07-22T01:40:12.956Z,14.70
2023-07-22T01:42:42.586Z,14.70
2023-07-22T01:45:11.565Z,14.70
2023-07-22T01:47:40.087Z,14.70
2023-07-22T01:50:09.069Z,14.80
2023-07-22T01:52:37.154Z,14.70
2023-07-22T01:55:07.302Z,14.70
2023-07-22T01:57:35.742Z,14.80
2023-07-22T02:00:06.674Z,14.80
2023-07-22T02:02:41.111Z,14.80
2023-07-22T02:05:10.778Z,14.70
2023-07-22T02:07:39.826Z,14.70
2023-07-22T02:10:09.085Z,14.70
2023-07-22T02:12:37.108Z,14.60
2023-07-22T02:15:08.194Z,14.70
2023-07-22T02:17:36.249Z,14.70
2023-07-22T02:20:05.973Z,14.70
2023-07-22T02:22:34.112Z,14.70
2023-07-22T02:25:02.241Z,14.70
2023-07-22T02:27:30.263Z,14.70
2023-07-22T02:29:58.321Z,14.70
2023-07-22T02:32:27.797Z,14.70
2023-07-22T02:34:55.877Z,14.60
2023-07-22T02:37:23.933Z,14.60
2023-07-22T02:39:51.994Z,14.60
2023-07-22T02:42:20.077Z,14.60
2023-07-22T02:44:48.100Z,14.70
2023-07-22T02:47:16.337Z,14.70
2023-07-22T02:49:46.245Z,14.50
2023-07-22T02:52:14.452Z,14.60
2023-07-22T02:54:43.024Z,14.60
2023-07-22T02:57:11.095Z,14.50
2023-07-22T02:59:39.232Z,14.60
2023-07-22T03:02:07.599Z,14.60
2023-07-22T03:04:35.780Z,14.60
2023-07-22T03:07:07.623Z,14.50
2023-07-22T03:09:35.645Z,14.50
2023-07-22T03:12:04.802Z,14.50
2023-07-22T03:14:37.647Z,14.40
2023-07-22T03:17:06.174Z,14.40
2023-07-22T03:19:34.288Z,14.50
2023-07-22T03:22:02.368Z,14.40
2023-07-22T03:24:31.900Z,14.40
2023-07-22T03:27:00.005Z,14.40
2023-07-22T03:29:28.881Z,14.40
2023-07-22T03:31:58.542Z,14.50
2023-07-22T03:34:26.601Z,14.50
2023-07-22T03:36:54.618Z,14.50
2023-07-22T03:39:22.690Z,14.50
2023-07-22T03:41:52.049Z,14.40
2023-07-22T03:44:20.300Z,14.40
2023-07-22T03:46:48.475Z,14.40
2023-07-22T03:49:16.583Z,14.50
2023-07-22T03:51:44.675Z,14.50
2023-07-22T03:54:12.739Z,14.40
2023-07-22T03:56:43.266Z,14.40
2023-07-22T03:59:12.666Z,14.40
2023-07-22T04:01:40.802Z,14.40
2023-07-22T04:04:09.444Z,14.40
2023-07-22T04:06:37.550Z,14.30
2023-07-22T04:09:05.888Z,14.30
2023-07-22T04:11:33.968Z,14.30
2023-07-22T04:14:02.006Z,14.30
2023-07-22T04:16:32.376Z,14.30
2023-07-22T04:19:00.444Z,14.30
2023-07-22T04:21:28.561Z,14.30
2023-07-22T04:23:56.653Z,14.20
2023-07-22T04:26:27.077Z,14.30
2023-07-22T04:28:58.049Z,14.30
2023-07-22T04:31:26.237Z,14.30
2023-07-22T04:33:55.734Z,14.40
2023-07-22T04:36:23.771Z,14.40
2023-07-22T04:38:51.812Z,14.40
2023-07-22T04:41:19.834Z,14.50
2023-07-22T04:43:48.675Z,14.50
2023-07-22T04:46:16.807Z,14.50
2023-07-22T04:48:44.892Z,14.60
2023-07-22T04:51:14.238Z,14.60
2023-07-22T04:53:42.309Z,14.50
2023-07-22T04:56:10.321Z,14.50
2023-07-22T04:58:38.359Z,14.60
2023-07-22T05:01:06.434Z,14.70
2023-07-22T05:03:34.627Z,14.80
2023-07-22T05:06:03.117Z,14.80
2023-07-22T05:08:32.620Z,14.60
2023-07-22T05:11:00.638Z,14.70
2023-07-22T05:13:28.689Z,14.80
2023-07-22T05:15:56.855Z,14.80
2023-07-22T05:18:24.912Z,14.90
2023-07-22T05:20:52.997Z,15.00
2023-07-22T05:23:21.017Z,15.20
2023-07-22T05:25:54.619Z,15.40
2023-07-22T05:28:24.661Z,15.50
2023-07-22T05:30:53.266Z,15.60
2023-07-22T05:33:21.437Z,15.70
2023-07-22T05:35:49.858Z,15.90
2023-07-22T05:38:17.885Z,16.10
2023-07-22T05:40:45.928Z,16.10
2023-07-22T05:43:15.315Z,16.10
2023-07-22T05:45:43.370Z,16.00
2023-07-22T05:48:11.478Z,16.10
2023-07-22T05:50:39.634Z,16.20
2023-07-22T05:53:07.684Z,16.40
2023-07-22T05:55:35.726Z,16.60
2023-07-22T05:58:06.627Z,16.80
2023-07-22T06:00:36.516Z,17.00
2023-07-22T06:03:06.204Z,17.10
2023-07-22T06:05:34.277Z,17.30
2023-07-22T06:08:02.460Z,17.30
2023-07-22T06:10:31.333Z,17.10
2023-07-22T06:13:00.466Z,17.30
2023-07-22T06:15:28.492Z,17.30
2023-07-22T06:17:57.931Z,17.40
2023-07-22T06:20:26.001Z,17.80
2023-07-22T06:22:54.062Z,17.60
2023-07-22T06:25:22.133Z,18.20
2023-07-22T06:27:50.218Z,18.20
2023-07-22T06:30:18.557Z,18.30
2023-07-22T06:32:46.649Z,18.40
2023-07-22T06:35:16.099Z,18.30
2023-07-22T06:37:44.545Z,18.30
2023-07-22T06:40:13.162Z,18.40
2023-07-22T06:42:41.229Z,18.80
2023-07-22T06:45:10.130Z,19.40
2023-07-22T06:47:38.265Z,19.40
2023-07-22T06:50:07.009Z,19.70
2023-07-22T06:52:36.389Z,19.40
2023-07-22T06:55:04.595Z,19.60
2023-07-22T06:57:32.642Z,19.30
2023-07-22T07:00:00.759Z,19.50
2023-07-22T07:02:29.219Z,19.80
2023-07-22T07:04:57.315Z,20.30
2023-07-22T07:07:25.355Z,20.00
2023-07-22T07:09:54.752Z,20.30
2023-07-22T07:12:23.362Z,20.60
2023-07-22T07:14:52.465Z,20.90
2023-07-22T07:17:20.526Z,20.90
2023-07-22T07:19:48.536Z,21.30
2023-07-22T07:22:16.584Z,21.20
2023-07-22T07:24:44.674Z,21.00
2023-07-22T07:27:14.117Z,20.80
2023-07-22T07:32:13.243Z,21.40
2023-07-22T07:34:41.325Z,21.10
2023-07-22T07:37:09.377Z,21.60
2023-07-22T07:39:37.398Z,21.80
2023-07-22T07:42:05.909Z,21.70
2023-07-22T07:44:35.272Z,21.60
2023-07-22T07:47:03.319Z,21.70
2023-07-22T07:49:31.364Z,21.70
2023-07-22T07:51:59.398Z,20.90
2023-07-22T07:54:27.464Z,20.20
2023-07-22T07:56:55.514Z,20.90
2023-07-22T07:59:23.602Z,21.30
2023-07-22T08:01:52.996Z,21.50
2023-07-22T08:04:21.100Z,21.20
2023-07-22T08:06:49.148Z,21.10
2023-07-22T08:09:20.169Z,21.00
2023-07-22T08:11:48.324Z,21.00
2023-07-22T08:14:16.382Z,20.30
2023-07-22T08:16:44.419Z,20.30
2023-07-22T08:19:13.931Z,21.10
2023-07-22T08:21:41.977Z,20.70
2023-07-22T08:24:10.251Z,21.10
2023-07-22T08:26:38.412Z,21.40
2023-07-22T08:29:06.459Z,21.80
2023-07-22T08:31:34.622Z,21.40
2023-07-22T08:34:02.725Z,21.70
2023-07-22T08:36:32.118Z,22.00
2023-07-22T08:39:00.130Z,21.60
2023-07-22T08:41:28.383Z,21.90
2023-07-22T08:43:56.915Z,22.30
2023-07-22T08:46:25.599Z,22.40
2023-07-22T08:48:55.619Z,22.50
2023-07-22T08:51:24.611Z,21.80
2023-07-22T08:54:08.970Z,22.10
2023-07-22T08:56:38.829Z,22.40
2023-07-22T08:59:07.901Z,23.00
2023-07-22T09:01:37.374Z,22.90
2023-07-22T09:04:06.114Z,23.20
2023-07-22T09:06:34.429Z,22.80
2023-07-22T09:09:06.043Z,23.60
2023-07-22T09:11:34.134Z,23.00
2023-07-22T09:14:02.616Z,22.50
2023-07-22T09:16:32.762Z,22.90
2023-07-22T09:19:01.428Z,23.10
2023-07-22T09:21:29.877Z,23.20
2023-07-22T09:23:58.061Z,23.20
2023-07-22T09:26:27.740Z,23.10
2023-07-22T09:28:56.677Z,23.00
2023-07-22T09:31:25.250Z,22.80
2023-07-22T09:33:55.247Z,23.60
2023-07-22T09:36:23.498Z,23.80
2023-07-22T09:39:01.815Z,23.40
2023-07-22T09:41:31.601Z,23.00
2023-07-22T09:43:59.776Z,23.10
2023-07-22T09:46:33.646Z,23.10
2023-07-22T09:49:04.628Z,23.80
2023-07-22T09:51:38.340Z,23.20
2023-07-22T09:54:11.665Z,23.00
2023-07-22T09:56:47.666Z,23.80
2023-07-22T09:59:15.743Z,24.20
2023-07-22T10:01:44.398Z,24.10
2023-07-22T10:04:12.534Z,24.20
2023-07-22T10:06:40.618Z,24.40
2023-07-22T10:09:09.130Z,24.20
2023-07-22T10:11:37.313Z,24.20
2023-07-22T10:14:07.365Z,24.20
2023-07-22T10:16:35.483Z,24.20
2023-07-22T10:19:04.164Z,23.90
2023-07-22T10:21:32.209Z,24.00
2023-07-22T10:24:00.255Z,23.90
2023-07-22T10:26:44.653Z,24.00
2023-07-22T10:29:15.956Z,23.70
2023-07-22T10:31:44.048Z,22.90
2023-07-22T10:34:12.138Z,23.20
2023-07-22T10:36:40.221Z,23.20
2023-07-22T10:39:08.689Z,23.10
2023-07-22T10:41:36.801Z,22.70
2023-07-22T10:44:05.679Z,23.20
2023-07-22T10:46:35.924Z,23.70
2023-07-22T10:49:14.142Z,23.70
2023-07-22T10:51:42.610Z,23.60
2023-07-22T10:54:14.104Z,22.80
2023-07-22T10:56:43.574Z,23.00
2023-07-22T10:59:12.441Z,23.00
2023-07-22T11:01:41.998Z,23.60
2023-07-22T11:04:11.672Z,23.70
2023-07-22T11:06:40.927Z,23.90
2023-07-22T11:09:09.209Z,23.70
2023-07-22T11:11:38.943Z,23.50
2023-07-22T11:14:17.140Z,23.40
2023-07-22T11:16:47.342Z,23.20
2023-07-22T11:19:15.570Z,23.80
2023-07-22T11:21:43.744Z,24.50
2023-07-22T11:24:11.857Z,24.70
2023-07-22T11:26:40.077Z,24.90
2023-07-22T11:29:09.077Z,25.10
2023-07-22T11:31:38.673Z,24.30
2023-07-22T11:34:08.125Z,24.80
2023-07-22T11:36:36.918Z,24.00
2023-07-22T11:39:05.269Z,24.40
2023-07-22T11:41:33.783Z,24.20
2023-07-22T11:44:02.219Z,24.80
2023-07-22T11:46:30.360Z,24.90
2023-07-22T11:48:58.407Z,24.90
2023-07-22T11:51:27.915Z,24.60
2023-07-22T11:53:56.662Z,24.40
2023-07-22T11:56:25.286Z,24.50
2023-07-22T11:58:53.649Z,24.90
2023-07-22T12:01:21.774Z,24.80
2023-07-22T12:03:49.969Z,24.80
2023-07-22T12:06:18.157Z,24.30
2023-07-22T12:08:48.390Z,24.70
2023-07-22T12:11:20.418Z,24.90
2023-07-22T12:13:51.539Z,25.10
2023-07-22T12:16:24.498Z,25.00
2023-07-22T12:18:52.539Z,24.70
2023-07-22T12:21:20.608Z,24.70
2023-07-22T12:23:49.977Z,24.70
2023-07-22T12:26:18.031Z,25.00
2023-07-22T12:28:46.073Z,25.10
2023-07-22T12:31:14.145Z,25.00
2023-07-22T12:33:42.212Z,24.90
2023-07-22T12:36:10.384Z,24.80
2023-07-22T12:38:38.402Z,25.30
2023-07-22T12:41:07.801Z,25.40
2023-07-22T12:43:35.854Z,25.60
2023-07-22T12:46:03.969Z,25.70
2023-07-22T12:48:32.264Z,25.80
2023-07-22T12:51:00.308Z,25.80
2023-07-22T12:53:29.665Z,26.10
2023-07-22T12:55:58.957Z,25.70
2023-07-22T12:58:28.354Z,25.20
2023-07-22T13:00:56.397Z,25.40
2023-07-22T13:03:24.533Z,24.60
2023-07-22T13:05:52.690Z,25.10
2023-07-22T13:08:20.749Z,25.20
2023-07-22T13:10:48.764Z,25.20
2023-07-22T13:13:16.804Z,25.60
2023-07-22T13:15:46.325Z,25.60
2023-07-22T13:18:17.859Z,25.30
2023-07-22T13:20:45.912Z,24.80
2023-07-22T13:23:13.969Z,24.50
2023-07-22T13:25:41.995Z,24.40
2023-07-22T13:28:10.044Z,24.10
2023-07-22T13:30:38.108Z,24.50
2023-07-22T13:33:07.547Z,24.80
2023-07-22T13:35:35.660Z,25.10
2023-07-22T13:38:03.689Z,25.00
2023-07-22T13:40:31.841Z,25.20
2023-07-22T13:42:59.857Z,24.70
2023-07-22T13:45:28.699Z,24.50
2023-07-22T13:47:56.805Z,24.20
2023-07-22T13:50:26.274Z,24.40
2023-07-22T13:52:54.306Z,24.20
2023-07-22T13:55:22.410Z,23.90
2023-07-22T13:57:50.430Z,23.70
2023-07-22T14:00:19.482Z,24.00
2023-07-22T14:02:47.594Z,24.30
2023-07-22T14:05:15.746Z,24.30
2023-07-22T14:07:45.172Z,24.00
2023-07-22T14:10:13.229Z,24.00
2023-07-22T14:12:41.277Z,23.80
2023-07-22T14:15:11.364Z,23.70
2023-07-22T14:17:40.200Z,23.80
2023-07-22T14:20:09.271Z,23.70
2023-07-22T14:22:37.317Z,23.80
2023-07-22T14:25:07.589Z,23.80
2023-07-22T14:27:36.089Z,23.70
2023-07-22T14:30:05.270Z,23.80
2023-07-22T14:32:33.364Z,24.20
2023-07-22T14:35:01.414Z,24.00
2023-07-22T14:37:29.818Z,23.70
2023-07-22T14:39:57.846Z,23.70
2023-07-22T14:42:27.757Z,23.70
2023-07-22T14:44:55.791Z,23.70
2023-07-22T14:47:23.966Z,23.80
2023-07-22T14:49:53.479Z,24.00
2023-07-22T14:52:21.875Z,24.00
2023-07-22T14:54:50.263Z,24.00
2023-07-22T14:57:19.112Z,24.20
2023-07-22T14:59:49.738Z,24.70
2023-07-22T15:02:17.767Z,25.10
2023-07-22T15:04:45.821Z,24.60
2023-07-22T15:07:13.846Z,24.60
2023-07-22T15:09:41.903Z,24.40
2023-07-22T15:12:11.080Z,24.20
2023-07-22T15:14:39.171Z,24.00
2023-07-22T15:17:09.175Z,24.00
2023-07-22T15:19:37.222Z,24.00
2023-07-22T15:22:05.619Z,24.10
2023-07-22T15:24:33.701Z,23.70
2023-07-22T15:27:01.794Z,23.60
2023-07-22T15:29:29.852Z,23.70
2023-07-22T15:31:57.936Z,23.90
2023-07-22T15:34:28.920Z,23.80
2023-07-22T15:36:57.002Z,23.80
2023-07-22T15:39:25.072Z,23.90
2023-07-22T15:41:53.110Z,24.00
2023-07-22T15:44:23.351Z,24.00
2023-07-22T15:46:51.445Z,24.30
2023-07-22T15:49:19.523Z,24.60
2023-07-22T15:51:49.276Z,24.50
2023-07-22T15:54:17.424Z,24.70
2023-07-22T15:56:45.536Z,24.80
2023-07-22T15:59:13.558Z,24.80
2023-07-22T16:01:43.250Z,24.50
2023-07-22T16:04:11.346Z,24.50
2023-07-22T16:06:39.410Z,24.60
2023-07-22T16:09:09.489Z,24.40
2023-07-22T16:11:37.530Z,24.40
2023-07-22T16:14:05.643Z,24.30
2023-07-22T16:16:35.639Z,24.00
2023-07-22T16:19:06.647Z,23.90
2023-07-22T16:21:34.688Z,23.70
2023-07-22T16:24:02.775Z,23.60
2023-07-22T16:26:32.150Z,23.80
2023-07-22T16:29:00.190Z,23.80
2023-07-22T16:31:28.527Z,23.90
2023-07-22T16:33:57.350Z,23.90
2023-07-22T16:36:25.390Z,23.80
2023-07-22T16:38:53.456Z,23.60
2023-07-22T16:41:21.493Z,23.40
2023-07-22T16:43:50.902Z,23.10
2023-07-22T16:46:19.022Z,23.10
2023-07-22T16:48:47.076Z,22.90
2023-07-22T16:51:16.753Z,22.90
2023-07-22T16:53:44.835Z,22.90
2023-07-22T16:56:12.883Z,22.90
2023-07-22T16:58:40.905Z,22.80
2023-07-22T17:01:10.647Z,22.90
2023-07-22T17:03:39.184Z,22.80
2023-07-22T17:06:07.264Z,22.80
2023-07-22T17:08:35.305Z,22.80
2023-07-22T17:11:03.382Z,22.70
2023-07-22T17:13:31.411Z,22.70
2023-07-22T17:15:59.530Z,22.80
2023-07-22T17:18:28.922Z,22.70
2023-07-22T17:20:56.976Z,22.60
2023-07-22T17:23:25.115Z,22.60
2023-07-22T17:25:53.202Z,22.50
2023-07-22T17:28:21.236Z,22.40
2023-07-22T17:30:51.814Z,22.30
2023-07-22T17:33:19.941Z,22.20
2023-07-22T17:35:49.317Z,22.20
2023-07-22T17:38:18.490Z,22.20
2023-07-22T17:40:48.701Z,22.10
2023-07-22T17:43:16.835Z,22.20
2023-07-22T17:45:44.853Z,22.00
2023-07-22T17:48:12.942Z,22.00
2023-07-22T17:50:41.017Z,21.90
2023-07-22T17:53:10.404Z,21.70
2023-07-22T17:55:38.457Z,21.60
2023-07-22T17:58:06.506Z,21.50
2023-07-22T18:00:34.558Z,21.40
2023-07-22T18:03:02.697Z,21.50
2023-07-22T18:05:31.503Z,21.50
2023-07-22T18:07:59.538Z,21.40
2023-07-22T18:10:28.968Z,21.40
2023-07-22T18:12:56.997Z,21.30
2023-07-22T18:15:25.066Z,21.20
2023-07-22T18:17:53.155Z,21.20
2023-07-22T18:20:21.230Z,21.30
2023-07-22T18:22:49.250Z,21.30
2023-07-22T18:25:17.432Z,21.30
2023-07-22T18:27:46.802Z,21.30
2023-07-22T18:30:14.879Z,21.20
2023-07-22T18:32:42.975Z,21.20
2023-07-22T18:35:11.152Z,21.20
2023-07-22T18:37:39.222Z,21.20
2023-07-22T18:40:08.657Z,21.10
2023-07-22T18:42:36.720Z,21.00
2023-07-22T18:45:07.187Z,21.10
2023-07-22T18:47:35.285Z,21.00
2023-07-22T18:50:03.770Z,21.00
2023-07-22T18:52:31.828Z,21.00
2023-07-22T18:54:59.838Z,20.90
2023-07-22T18:57:27.889Z,20.90
2023-07-22T18:59:55.916Z,20.80
2023-07-22T19:02:25.315Z,20.80
2023-07-22T19:04:53.464Z,20.80
2023-07-22T19:07:21.514Z,20.70
2023-07-22T19:09:49.533Z,20.70
2023-07-22T19:12:17.578Z,20.60
2023-07-22T19:14:45.601Z,20.60
2023-07-22T19:17:13.660Z,20.60
2023-07-22T19:19:43.572Z,20.50
2023-07-22T19:22:11.618Z,20.50
2023-07-22T19:24:39.708Z,20.50
2023-07-22T19:27:08.507Z,20.40
2023-07-22T19:29:36.551Z,20.40
2023-07-22T19:32:05.030Z,20.30
2023-07-22T19:34:33.115Z,20.30
2023-07-22T19:37:03.483Z,20.30
2023-07-22T19:39:31.596Z,20.20
2023-07-22T19:41:59.663Z,20.10
2023-07-22T19:44:27.702Z,20.10
2023-07-22T19:46:55.723Z,20.10
2023-07-22T19:49:27.268Z,20.00
2023-07-22T19:51:55.336Z,20.00
2023-07-22T19:54:29.664Z,19.90
2023-07-22T19:56:57.683Z,19.90
2023-07-22T19:59:25.748Z,19.90
2023-07-22T20:01:53.841Z,19.80
2023-07-22T20:04:21.951Z,19.80
2023-07-22T20:06:50.012Z,19.80
2023-07-22T20:09:18.200Z,19.70
2023-07-22T20:11:47.620Z,19.70
2023-07-22T20:14:15.654Z,19.70
2023-07-22T20:16:43.688Z,19.60
2023-07-22T20:19:11.718Z,19.60
2023-07-22T20:21:39.790Z,19.50
2023-07-22T20:24:07.876Z,19.50
2023-07-22T20:26:35.987Z,19.50
2023-07-22T20:29:05.367Z,19.40
2023-07-22T20:31:33.420Z,19.40
2023-07-22T20:34:03.207Z,19.30
2023-07-22T20:36:31.252Z,19.30
2023-07-22T20:39:00.029Z,19.20
2023-07-22T20:41:28.436Z,19.20
2023-07-22T20:43:56.718Z,19.20
2023-07-22T20:46:26.152Z,19.10
2023-07-22T20:48:54.215Z,19.10
2023-07-22T20:51:22.278Z,19.10
2023-07-22T20:53:50.324Z,19.10
2023-07-22T20:56:19.012Z,19.10
2023-07-22T20:58:47.093Z,19.00
2023-07-22T21:01:15.167Z,19.00
2023-07-22T21:03:44.631Z,18.90
2023-07-22T21:06:12.659Z,18.90
2023-07-22T21:08:40.728Z,18.90
2023-07-22T21:11:08.902Z,18.90
2023-07-22T21:13:37.043Z,18.90
2023-07-22T21:16:05.560Z,18.90
2023-07-22T21:18:38.911Z,18.80
2023-07-22T21:21:08.520Z,18.80
2023-07-22T21:23:36.690Z,18.80
2023-07-22T21:26:04.728Z,18.70
2023-07-22T21:28:32.776Z,18.70
2023-07-22T21:31:01.845Z,18.70
2023-07-22T21:33:29.987Z,18.70
2023-07-22T21:35:58.034Z,18.70
2023-07-22T21:38:28.156Z,18.60
2023-07-22T21:40:56.455Z,18.60
2023-07-22T21:43:24.482Z,18.60
2023-07-22T21:45:52.528Z,18.60
2023-07-22T21:48:20.544Z,18.60
2023-07-22T21:50:48.590Z,18.50
2023-07-22T21:53:16.699Z,18.50
2023-07-22T21:55:46.218Z,18.40
2023-07-22T21:58:14.256Z,18.40
2023-07-22T22:00:42.414Z,18.40
2023-07-22T22:03:11.204Z,18.40
2023-07-22T22:05:39.364Z,18.40
2023-07-22T22:08:07.468Z,18.40
2023-07-22T22:10:36.554Z,18.40
2023-07-22T22:13:06.042Z,18.40
2023-07-22T22:15:34.061Z,18.30
2023-07-22T22:18:02.224Z,18.40
2023-07-22T22:20:30.542Z,18.30
2023-07-22T22:22:59.460Z,18.30
2023-07-22T22:25:27.536Z,18.30
2023-07-22T22:27:55.586Z,18.20
2023-07-22T22:30:25.125Z,18.20
2023-07-22T22:32:53.405Z,18.20
2023-07-22T22:35:21.589Z,18.20
2023-07-22T22:37:49.652Z,18.10
2023-07-22T22:40:17.700Z,18.10
2023-07-22T22:42:45.758Z,18.00
2023-07-22T22:45:13.822Z,18.00
2023-07-22T22:47:43.279Z,18.00
2023-07-22T22:50:11.764Z,17.90
2023-07-22T22:52:39.804Z,17.90
2023-07-22T22:55:08.380Z,17.90
2023-07-22T22:57:36.394Z,17.70
2023-07-22T23:00:05.346Z,17.60
2023-07-22T23:02:35.438Z,17.60
2023-07-22T23:05:05.453Z,17.50
2023-07-22T23:07:33.592Z,17.50
2023-07-22T23:10:01.656Z,17.40
2023-07-22T23:12:29.960Z,17.20
2023-07-22T23:14:59.997Z,17.20
2023-07-22T23:17:28.196Z,17.20
2023-07-22T23:19:56.970Z,17.10
2023-07-22T23:22:26.397Z,17.00
2023-07-22T23:24:55.352Z,16.90
2023-07-22T23:27:26.029Z,16.80
2023-07-22T23:29:54.152Z,16.80
2023-07-22T23:32:22.225Z,16.80
2023-07-22T23:34:52.446Z,16.70
2023-07-22T23:37:20.488Z,16.70
2023-07-22T23:39:49.863Z,16.60
2023-07-22T23:42:17.965Z,16.60
2023-07-22T23:44:46.007Z,16.60
2023-07-22T23:47:14.062Z,16.60
2023-07-22T23:49:42.114Z,16.60
2023-07-22T23:52:10.240Z,16.50
2023-07-22T23:54:38.261Z,16.50
2023-07-22T23:57:08.559Z,16.50
2023-07-22T23:59:36.601Z,16.50
